createdAt,value
2019-03-22T00:02:05.017Z,4.90
2019-03-22T00:04:34.977Z,4.90
2019-03-22T00:07:06.826Z,4.90
2019-03-22T00:09:36.785Z,4.90
2019-03-22T00:12:06.770Z,4.80
2019-03-22T00:14:37.136Z,4.80
2019-03-22T00:17:07.358Z,4.80
2019-03-22T00:19:37.321Z,4.80
2019-03-22T00:22:07.298Z,4.70
2019-03-22T00:24:37.246Z,4.70
2019-03-22T00:27:15.854Z,4.70
2019-03-22T00:29:38.838Z,4.70
2019-03-22T00:32:08.845Z,4.70
2019-03-22T00:34:38.807Z,4.70
2019-03-22T00:37:08.811Z,4.60
2019-03-22T00:39:38.750Z,4.60
2019-03-22T00:42:08.712Z,4.60
2019-03-22T00:44:38.655Z,4.60
2019-03-22T00:47:08.634Z,4.60
2019-03-22T00:49:38.577Z,4.60
2019-03-22T00:52:08.561Z,4.60
2019-03-22T00:54:38.906Z,4.60
2019-03-22T00:57:08.986Z,4.50
2019-03-22T00:59:38.952Z,4.50
2019-03-22T01:02:08.922Z,4.50
2019-03-22T01:04:38.870Z,4.50
2019-03-22T01:07:08.848Z,4.50
2019-03-22T01:09:38.807Z,4.40
2019-03-22T01:12:08.835Z,4.40
2019-03-22T01:14:38.792Z,4.40
2019-03-22T01:17:08.876Z,4.40
2019-03-22T01:19:38.841Z,4.40
2019-03-22T01:22:08.820Z,4.40
2019-03-22T01:24:38.857Z,4.40
2019-03-22T01:27:08.879Z,4.30
2019-03-22T01:29:38.867Z,4.30
2019-03-22T01:32:08.903Z,4.30
2019-03-22T01:34:38.844Z,4.30
2019-03-22T01:37:08.812Z,4.30
2019-03-22T01:39:38.760Z,4.20
2019-03-22T01:42:08.742Z,4.30
2019-03-22T01:44:38.685Z,4.20
2019-03-22T01:47:08.772Z,4.20
2019-03-22T01:49:38.720Z,4.20
2019-03-22T01:52:08.702Z,4.20
2019-03-22T01:54:38.698Z,4.20
2019-03-22T01:57:08.707Z,4.10
2019-03-22T01:59:38.657Z,4.10
2019-03-22T02:02:08.830Z,4.10
2019-03-22T02:04:38.778Z,4.10
2019-03-22T02:07:08.734Z,4.10
2019-03-22T02:09:38.670Z,4.10
2019-03-22T02:12:08.651Z,4.00
2019-03-22T02:14:38.596Z,4.00
2019-03-22T02:17:08.582Z,4.00
2019-03-22T02:19:38.543Z,4.00
2019-03-22T02:22:08.522Z,4.00
2019-03-22T02:24:39.107Z,4.00
2019-03-22T02:27:09.058Z,4.00
2019-03-22T02:29:39.021Z,3.90
2019-03-22T02:32:09.018Z,3.90
2019-03-22T02:34:38.966Z,3.90
2019-03-22T02:37:08.937Z,3.90
2019-03-22T02:39:38.957Z,3.90
2019-03-22T02:42:09.154Z,3.90
2019-03-22T02:44:39.106Z,3.90
2019-03-22T02:47:09.087Z,3.90
2019-03-22T02:49:39.033Z,3.90
2019-03-22T02:52:09.012Z,3.80
2019-03-22T02:54:39.020Z,3.80
2019-03-22T02:57:08.995Z,3.80
2019-03-22T02:59:38.959Z,3.80
2019-03-22T03:02:08.945Z,3.70
2019-03-22T03:04:38.901Z,3.70
2019-03-22T03:07:08.882Z,3.70
2019-03-22T03:09:38.844Z,3.70
2019-03-22T03:12:08.814Z,3.70
2019-03-22T03:14:38.753Z,3.70
2019-03-22T03:17:08.747Z,3.70
2019-03-22T03:19:38.687Z,3.70
2019-03-22T03:22:08.643Z,3.70
2019-03-22T03:24:38.587Z,3.60
2019-03-22T03:27:08.569Z,3.60
2019-03-22T03:29:38.530Z,3.60
2019-03-22T03:32:08.533Z,3.60
2019-03-22T03:34:38.476Z,3.60
2019-03-22T03:37:08.427Z,3.60
2019-03-22T03:39:38.465Z,3.60
2019-03-22T03:42:08.415Z,3.50
2019-03-22T03:44:38.396Z,3.50
2019-03-22T03:47:10.501Z,3.50
2019-03-22T03:49:39.957Z,3.50
2019-03-22T03:52:09.913Z,3.50
2019-03-22T03:54:39.895Z,3.50
2019-03-22T03:57:09.839Z,3.50
2019-03-22T03:59:39.829Z,3.50
2019-03-22T04:02:09.773Z,3.50
2019-03-22T04:04:39.896Z,3.40
2019-03-22T04:07:09.925Z,3.50
2019-03-22T04:09:39.908Z,3.40
2019-03-22T04:12:09.866Z,3.40
2019-03-22T04:14:39.833Z,3.40
2019-03-22T04:17:09.782Z,3.40
2019-03-22T04:19:39.747Z,3.30
2019-03-22T04:22:09.723Z,3.30
2019-03-22T04:24:39.697Z,3.30
2019-03-22T04:27:09.649Z,3.30
2019-03-22T04:29:39.750Z,3.30
2019-03-22T04:32:09.720Z,3.30
2019-03-22T04:34:39.712Z,3.30
2019-03-22T04:37:09.683Z,3.30
2019-03-22T04:39:39.661Z,3.20
2019-03-22T04:42:09.902Z,3.30
2019-03-22T04:44:39.870Z,3.30
2019-03-22T04:47:11.021Z,3.30
2019-03-22T04:49:41.911Z,3.30
2019-03-22T04:52:12.748Z,3.20
2019-03-22T04:54:45.510Z,3.20
2019-03-22T04:57:16.750Z,3.20
2019-03-22T04:59:48.808Z,3.20
2019-03-22T05:02:19.103Z,3.20
2019-03-22T05:04:50.172Z,3.10
2019-03-22T05:07:20.810Z,3.10
2019-03-22T05:09:51.382Z,3.10
2019-03-22T05:12:22.537Z,3.10
2019-03-22T05:14:53.982Z,3.10
2019-03-22T05:17:25.038Z,3.10
2019-03-22T05:19:58.190Z,3.10
2019-03-22T05:22:30.425Z,3.00
2019-03-22T05:25:03.166Z,3.00
2019-03-22T05:27:36.388Z,3.00
2019-03-22T05:30:08.730Z,3.00
2019-03-22T05:32:38.709Z,3.00
2019-03-22T05:35:08.694Z,3.00
2019-03-22T05:37:38.642Z,3.00
2019-03-22T05:40:08.687Z,3.00
2019-03-22T05:42:38.674Z,3.00
2019-03-22T05:45:09.070Z,3.00
2019-03-22T05:47:39.022Z,3.00
2019-03-22T05:50:09.001Z,2.90
2019-03-22T05:52:38.949Z,3.00
2019-03-22T05:55:09.440Z,3.00
2019-03-22T05:57:39.388Z,3.00
2019-03-22T06:00:09.635Z,3.00
2019-03-22T06:02:39.621Z,2.90
2019-03-22T06:05:09.608Z,3.00
2019-03-22T06:07:39.550Z,2.90
2019-03-22T06:10:09.818Z,2.90
2019-03-22T06:12:39.783Z,2.90
2019-03-22T06:15:10.207Z,2.90
2019-03-22T06:17:50.964Z,2.90
2019-03-22T06:20:12.540Z,2.90
2019-03-22T06:22:42.477Z,2.80
2019-03-22T06:25:12.463Z,3.00
2019-03-22T06:27:42.417Z,2.90
2019-03-22T06:30:12.693Z,3.30
2019-03-22T06:32:42.787Z,4.00
2019-03-22T06:35:14.476Z,4.20
2019-03-22T06:37:44.420Z,4.60
2019-03-22T06:40:14.397Z,4.90
2019-03-22T06:42:44.340Z,4.80
2019-03-22T06:45:14.434Z,5.10
2019-03-22T06:47:44.433Z,5.50
2019-03-22T06:50:14.413Z,5.30
2019-03-22T06:52:44.361Z,5.10
2019-03-22T06:55:14.342Z,5.40
2019-03-22T06:57:44.297Z,5.60
2019-03-22T07:00:14.296Z,5.50
2019-03-22T07:02:44.246Z,5.70
2019-03-22T07:05:14.226Z,6.30
2019-03-22T07:07:44.269Z,7.00
2019-03-22T07:10:14.436Z,6.80
2019-03-22T07:12:44.390Z,6.80
2019-03-22T07:15:14.969Z,6.60
2019-03-22T07:17:44.930Z,6.80
2019-03-22T07:20:14.925Z,6.90
2019-03-22T07:22:44.881Z,7.10
2019-03-22T07:25:14.871Z,6.90
2019-03-22T07:27:44.816Z,6.80
2019-03-22T07:30:18.918Z,6.70
2019-03-22T07:32:46.585Z,8.10
2019-03-22T07:35:16.560Z,8.50
2019-03-22T07:37:46.509Z,8.90
2019-03-22T07:40:16.481Z,9.00
2019-03-22T07:42:46.455Z,8.90
2019-03-22T07:45:16.447Z,9.20
2019-03-22T07:47:46.516Z,8.90
2019-03-22T07:50:16.501Z,8.30
2019-03-22T07:52:46.470Z,7.70
2019-03-22T07:55:16.503Z,7.70
2019-03-22T07:57:46.489Z,8.20
2019-03-22T08:00:16.682Z,8.30
2019-03-22T08:02:46.640Z,8.10
2019-03-22T08:05:16.618Z,8.40
2019-03-22T08:07:46.569Z,9.20
2019-03-22T08:10:16.567Z,8.90
2019-03-22T08:12:46.523Z,8.50
2019-03-22T08:15:31.969Z,8.10
2019-03-22T08:18:02.472Z,8.40
2019-03-22T08:20:32.647Z,9.00
2019-03-22T08:23:05.184Z,8.60
2019-03-22T08:25:35.183Z,8.50
2019-03-22T08:28:05.126Z,8.40
2019-03-22T08:30:42.951Z,8.50
2019-03-22T08:33:06.775Z,8.60
2019-03-22T08:35:36.752Z,8.30
2019-03-22T08:38:06.741Z,8.30
2019-03-22T08:40:36.741Z,8.60
2019-03-22T08:43:06.717Z,9.20
2019-03-22T08:45:36.715Z,9.30
2019-03-22T08:48:06.720Z,9.90
2019-03-22T08:50:36.680Z,10.00
2019-03-22T08:53:06.635Z,10.00
2019-03-22T08:55:36.731Z,10.50
2019-03-22T08:58:06.690Z,10.20
2019-03-22T09:00:39.434Z,9.90
2019-03-22T09:03:08.390Z,9.90
2019-03-22T09:05:38.369Z,9.70
2019-03-22T09:08:08.340Z,10.20
2019-03-22T09:10:38.423Z,10.20
2019-03-22T09:13:08.383Z,10.40
2019-03-22T09:15:41.742Z,10.50
2019-03-22T09:18:09.976Z,10.60
2019-03-22T09:20:39.993Z,10.40
2019-03-22T09:23:09.934Z,10.50
2019-03-22T09:25:39.916Z,10.80
2019-03-22T09:28:10.510Z,11.40
2019-03-22T09:30:40.585Z,11.50
2019-03-22T09:33:13.329Z,11.50
2019-03-22T09:35:42.316Z,11.70
2019-03-22T09:38:13.287Z,12.10
2019-03-22T09:40:43.613Z,11.90
2019-03-22T09:43:13.571Z,11.80
2019-03-22T09:45:43.576Z,12.50
2019-03-22T09:48:13.573Z,11.90
2019-03-22T09:50:43.478Z,11.80
2019-03-22T09:53:13.466Z,12.10
2019-03-22T09:55:43.435Z,12.40
2019-03-22T09:58:13.404Z,12.60
2019-03-22T10:00:43.520Z,12.60
2019-03-22T10:03:13.588Z,12.80
2019-03-22T10:05:43.624Z,12.60
2019-03-22T10:08:13.637Z,11.90
2019-03-22T10:10:43.583Z,11.90
2019-03-22T10:13:13.566Z,11.40
2019-03-22T10:15:43.656Z,12.10
2019-03-22T10:18:13.703Z,12.30
2019-03-22T10:20:43.692Z,11.90
2019-03-22T10:23:13.681Z,12.10
2019-03-22T10:25:43.600Z,12.60
2019-03-22T10:28:13.640Z,12.10
2019-03-22T10:30:43.977Z,11.60
2019-03-22T10:33:22.705Z,11.90
2019-03-22T10:35:45.563Z,12.30
2019-03-22T10:38:16.630Z,12.50
2019-03-22T10:40:46.875Z,12.70
2019-03-22T10:43:16.850Z,12.60
2019-03-22T10:45:46.817Z,13.10
2019-03-22T10:48:16.786Z,13.20
2019-03-22T10:50:46.725Z,12.80
2019-03-22T10:53:16.811Z,12.90
2019-03-22T10:55:46.733Z,13.10
2019-03-22T10:58:21.216Z,13.10
2019-03-22T11:00:48.310Z,13.00
2019-03-22T11:03:18.275Z,12.80
2019-03-22T11:05:48.241Z,12.80
2019-03-22T11:08:18.240Z,12.90
2019-03-22T11:10:48.239Z,12.90
2019-03-22T11:13:18.209Z,12.70
2019-03-22T11:15:48.929Z,12.70
2019-03-22T11:18:19.132Z,13.30
2019-03-22T11:20:49.085Z,12.90
2019-03-22T11:23:19.447Z,13.00
2019-03-22T11:25:49.440Z,13.00
2019-03-22T11:28:19.423Z,13.00
2019-03-22T11:30:49.404Z,13.10
2019-03-22T11:33:19.376Z,13.10
2019-03-22T11:35:49.335Z,13.00
2019-03-22T11:38:19.312Z,13.10
2019-03-22T11:40:49.261Z,13.30
2019-03-22T11:43:19.289Z,12.90
2019-03-22T11:45:49.281Z,12.90
2019-03-22T11:48:19.684Z,13.10
2019-03-22T11:50:50.137Z,13.30
2019-03-22T11:53:20.512Z,13.20
2019-03-22T11:55:50.822Z,13.10
2019-03-22T11:58:20.797Z,13.00
2019-03-22T12:00:50.746Z,13.00
2019-03-22T12:03:20.923Z,13.10
2019-03-22T12:05:50.969Z,13.30
2019-03-22T12:08:21.682Z,13.20
2019-03-22T12:10:51.606Z,13.40
2019-03-22T12:13:21.576Z,13.50
2019-03-22T12:15:51.534Z,13.40
2019-03-22T12:18:21.501Z,13.60
2019-03-22T12:20:51.450Z,13.70
2019-03-22T12:23:21.669Z,13.50
2019-03-22T12:25:51.599Z,13.70
2019-03-22T12:28:21.929Z,13.70
2019-03-22T12:30:53.154Z,13.70
2019-03-22T12:33:23.134Z,13.70
2019-03-22T12:35:53.089Z,13.80
2019-03-22T12:38:23.165Z,13.80
2019-03-22T12:40:53.104Z,13.70
2019-03-22T12:43:23.080Z,13.70
2019-03-22T12:45:53.079Z,13.90
2019-03-22T12:48:23.074Z,13.80
2019-03-22T12:50:53.089Z,13.80
2019-03-22T12:53:23.290Z,13.70
2019-03-22T12:55:53.234Z,14.00
2019-03-22T12:58:23.201Z,14.10
2019-03-22T13:00:53.432Z,14.20
2019-03-22T13:03:24.375Z,14.10
2019-03-22T13:05:54.520Z,14.10
2019-03-22T13:08:24.513Z,14.20
2019-03-22T13:10:54.481Z,14.10
2019-03-22T13:13:24.453Z,14.20
2019-03-22T13:15:54.417Z,14.40
2019-03-22T13:18:24.435Z,14.40
2019-03-22T13:20:54.398Z,14.40
2019-03-22T13:23:24.391Z,14.30
2019-03-22T13:25:54.343Z,14.30
2019-03-22T13:28:24.317Z,14.50
2019-03-22T13:30:54.308Z,14.60
2019-03-22T13:33:24.290Z,14.30
2019-03-22T13:35:54.238Z,14.40
2019-03-22T13:38:24.291Z,14.40
2019-03-22T13:40:54.425Z,14.50
2019-03-22T13:43:24.534Z,14.50
2019-03-22T13:45:54.526Z,14.50
2019-03-22T13:48:25.689Z,14.60
2019-03-22T13:50:55.672Z,14.50
2019-03-22T13:53:25.786Z,14.50
2019-03-22T13:55:55.777Z,14.50
2019-03-22T13:58:25.739Z,14.40
2019-03-22T14:00:55.725Z,14.60
2019-03-22T14:03:25.680Z,14.80
2019-03-22T14:05:55.670Z,14.90
2019-03-22T14:08:27.068Z,14.70
2019-03-22T14:10:57.188Z,14.80
2019-03-22T14:13:27.140Z,14.80
2019-03-22T14:15:57.186Z,14.70
2019-03-22T14:18:27.214Z,14.60
2019-03-22T14:20:57.199Z,14.70
2019-03-22T14:23:27.177Z,14.60
2019-03-22T14:25:57.139Z,14.70
2019-03-22T14:28:27.088Z,14.70
2019-03-22T14:30:57.174Z,14.80
2019-03-22T14:33:27.116Z,14.70
2019-03-22T14:35:57.159Z,14.90
2019-03-22T14:38:28.214Z,15.00
2019-03-22T14:40:58.310Z,15.00
2019-03-22T14:43:28.439Z,14.80
2019-03-22T14:45:58.441Z,14.80
2019-03-22T14:48:28.396Z,15.10
2019-03-22T14:50:58.374Z,15.10
2019-03-22T14:53:28.364Z,15.00
2019-03-22T14:55:58.333Z,15.00
2019-03-22T14:58:28.355Z,15.00
2019-03-22T15:00:58.347Z,15.10
2019-03-22T15:03:28.799Z,14.80
2019-03-22T15:05:58.945Z,14.80
2019-03-22T15:08:29.005Z,14.80
2019-03-22T15:10:59.099Z,14.70
2019-03-22T15:13:34.325Z,14.70
2019-03-22T15:16:23.475Z,14.60
2019-03-22T15:19:11.441Z,14.60
2019-03-22T15:21:55.240Z,14.70
2019-03-22T15:24:44.140Z,14.50
2019-03-22T15:27:35.729Z,14.60
2019-03-22T15:30:34.498Z,14.80
2019-03-22T15:33:16.880Z,14.70
2019-03-22T15:36:08.751Z,14.60
2019-03-22T15:38:58.007Z,14.60
2019-03-22T15:41:27.993Z,14.60
2019-03-22T15:43:57.953Z,14.60
2019-03-22T15:46:28.065Z,14.50
2019-03-22T15:48:57.983Z,14.40
2019-03-22T15:51:27.957Z,14.20
2019-03-22T15:53:57.917Z,14.10
2019-03-22T15:56:27.905Z,14.00
2019-03-22T15:58:57.861Z,14.10
2019-03-22T16:01:27.851Z,14.00
2019-03-22T16:03:57.836Z,13.90
2019-03-22T16:06:27.870Z,13.70
2019-03-22T16:08:57.826Z,13.60
2019-03-22T16:11:27.809Z,13.60
2019-03-22T16:13:57.856Z,13.50
2019-03-22T16:16:27.861Z,13.40
2019-03-22T16:18:57.841Z,13.30
2019-03-22T16:21:27.805Z,13.10
2019-03-22T16:23:57.837Z,13.00
2019-03-22T16:26:27.814Z,12.90
2019-03-22T16:28:57.794Z,12.70
2019-03-22T16:31:27.768Z,12.60
2019-03-22T16:33:57.806Z,12.60
2019-03-22T16:36:27.787Z,12.40
2019-03-22T16:38:57.798Z,12.20
2019-03-22T16:41:27.773Z,12.20
2019-03-22T16:43:57.761Z,12.20
2019-03-22T16:46:28.056Z,12.30
2019-03-22T16:48:58.962Z,12.30
2019-03-22T16:51:28.911Z,12.20
2019-03-22T16:53:58.966Z,12.00
2019-03-22T16:56:28.944Z,12.00
2019-03-22T16:58:58.899Z,12.00
2019-03-22T17:01:28.853Z,12.00
2019-03-22T17:04:04.346Z,12.00
2019-03-22T17:06:30.473Z,11.80
2019-03-22T17:09:00.804Z,11.80
2019-03-22T17:11:30.786Z,11.80
2019-03-22T17:14:00.761Z,11.60
2019-03-22T17:16:30.739Z,11.40
2019-03-22T17:19:00.751Z,11.60
2019-03-22T17:21:30.867Z,11.40
2019-03-22T17:24:00.891Z,11.30
2019-03-22T17:26:30.902Z,11.40
2019-03-22T17:29:00.878Z,11.30
2019-03-22T17:31:30.877Z,11.30
2019-03-22T17:34:00.897Z,11.30
2019-03-22T17:36:30.861Z,11.30
2019-03-22T17:39:00.850Z,11.20
2019-03-22T17:41:30.820Z,11.30
2019-03-22T17:44:00.796Z,11.30
2019-03-22T17:46:30.832Z,11.40
2019-03-22T17:49:00.834Z,11.50
2019-03-22T17:51:30.867Z,11.30
2019-03-22T17:54:00.868Z,11.50
2019-03-22T17:56:30.840Z,11.50
2019-03-22T17:59:00.826Z,11.50
2019-03-22T18:01:31.007Z,11.50
2019-03-22T18:04:01.012Z,11.40
2019-03-22T18:06:30.981Z,11.30
2019-03-22T18:09:00.965Z,11.20
2019-03-22T18:11:30.933Z,11.30
2019-03-22T18:14:00.950Z,11.20
2019-03-22T18:16:30.918Z,11.20
2019-03-22T18:19:01.106Z,11.10
2019-03-22T18:21:31.073Z,11.10
2019-03-22T18:24:01.126Z,11.10
2019-03-22T18:26:31.090Z,11.00
2019-03-22T18:29:01.064Z,11.00
2019-03-22T18:31:31.057Z,10.90
2019-03-22T18:34:01.046Z,10.90
2019-03-22T18:36:30.997Z,10.80
2019-03-22T18:39:01.024Z,10.80
2019-03-22T18:41:30.978Z,10.80
2019-03-22T18:44:00.978Z,10.70
2019-03-22T18:46:31.058Z,10.70
2019-03-22T18:49:01.080Z,10.60
2019-03-22T18:51:31.085Z,10.60
2019-03-22T18:54:01.050Z,10.60
2019-03-22T18:56:31.099Z,10.50
2019-03-22T18:59:01.046Z,10.50
2019-03-22T19:01:31.063Z,10.50
2019-03-22T19:04:01.046Z,10.50
2019-03-22T19:06:31.036Z,10.40
2019-03-22T19:09:01.006Z,10.40
2019-03-22T19:11:30.993Z,10.40
2019-03-22T19:14:00.945Z,10.30
2019-03-22T19:16:31.012Z,10.30
2019-03-22T19:19:00.977Z,10.30
2019-03-22T19:21:31.130Z,10.30
2019-03-22T19:24:01.090Z,10.20
2019-03-22T19:26:31.085Z,10.20
2019-03-22T19:29:01.142Z,10.10
2019-03-22T19:31:31.233Z,10.10
2019-03-22T19:34:01.198Z,10.10
2019-03-22T19:36:31.195Z,10.00
2019-03-22T19:39:01.141Z,10.00
2019-03-22T19:41:31.108Z,10.00
2019-03-22T19:44:01.206Z,10.00
2019-03-22T19:46:31.161Z,9.90
2019-03-22T19:49:01.126Z,9.90
2019-03-22T19:51:31.108Z,9.90
2019-03-22T19:54:01.069Z,9.80
2019-03-22T19:56:31.051Z,9.80
2019-03-22T19:59:01.055Z,9.70
2019-03-22T20:01:31.039Z,9.70
2019-03-22T20:04:01.100Z,9.70
2019-03-22T20:06:31.098Z,9.70
2019-03-22T20:09:02.031Z,9.60
2019-03-22T20:11:32.078Z,9.60
2019-03-22T20:14:02.199Z,9.60
2019-03-22T20:16:32.242Z,9.50
2019-03-22T20:19:02.205Z,9.50
2019-03-22T20:21:32.313Z,9.50
2019-03-22T20:24:02.278Z,9.50
2019-03-22T20:26:32.279Z,9.40
2019-03-22T20:29:02.278Z,9.40
2019-03-22T20:31:32.279Z,9.40
2019-03-22T20:34:02.232Z,9.40
2019-03-22T20:36:32.217Z,9.30
2019-03-22T20:39:02.158Z,9.30
2019-03-22T20:41:32.134Z,9.30
2019-03-22T20:44:02.087Z,9.20
2019-03-22T20:46:32.116Z,9.20
2019-03-22T20:49:02.067Z,9.20
2019-03-22T20:51:32.265Z,9.20
2019-03-22T20:54:02.235Z,9.20
2019-03-22T20:56:32.225Z,9.10
2019-03-22T20:59:02.191Z,9.10
2019-03-22T21:01:32.222Z,9.10
2019-03-22T21:04:02.223Z,9.10
2019-03-22T21:06:32.197Z,9.00
2019-03-22T21:09:02.172Z,9.00
2019-03-22T21:11:32.126Z,9.00
2019-03-22T21:14:02.118Z,9.00
2019-03-22T21:16:32.132Z,8.90
2019-03-22T21:19:02.120Z,8.90
2019-03-22T21:21:36.589Z,8.80
2019-03-22T21:24:03.751Z,8.80
2019-03-22T21:26:33.740Z,8.80
2019-03-22T21:29:03.757Z,8.80
2019-03-22T21:31:33.738Z,8.70
2019-03-22T21:34:03.756Z,8.70
2019-03-22T21:36:33.829Z,8.70
2019-03-22T21:39:05.123Z,8.60
2019-03-22T21:41:35.285Z,8.60
2019-03-22T21:44:05.265Z,8.60
2019-03-22T21:46:35.240Z,8.60
2019-03-22T21:49:05.200Z,8.50
2019-03-22T21:51:35.173Z,8.50
2019-03-22T21:54:05.128Z,8.50
2019-03-22T21:56:35.153Z,8.50
2019-03-22T21:59:05.166Z,8.40
2019-03-22T22:01:35.136Z,8.40
2019-03-22T22:04:05.118Z,8.40
2019-03-22T22:06:35.133Z,8.30
2019-03-22T22:09:07.017Z,8.30
2019-03-22T22:11:37.219Z,8.30
2019-03-22T22:14:07.197Z,8.20
2019-03-22T22:16:37.937Z,8.20
2019-03-22T22:19:07.877Z,8.20
2019-03-22T22:21:38.446Z,8.20
2019-03-22T22:24:09.328Z,8.10
2019-03-22T22:26:39.843Z,8.10
2019-03-22T22:29:10.356Z,8.00
2019-03-22T22:31:41.123Z,8.00
2019-03-22T22:34:12.057Z,8.00
2019-03-22T22:36:42.354Z,8.00
2019-03-22T22:39:13.157Z,8.00
2019-03-22T22:41:43.698Z,7.90
2019-03-22T22:44:14.420Z,7.90
2019-03-22T22:46:44.857Z,7.80
2019-03-22T22:49:15.799Z,7.80
2019-03-22T22:51:46.264Z,7.80
2019-03-22T22:54:17.330Z,7.70
2019-03-22T22:56:47.569Z,7.70
2019-03-22T22:59:18.174Z,7.70
2019-03-22T23:01:48.823Z,7.60
2019-03-22T23:04:19.144Z,7.60
2019-03-22T23:06:49.407Z,7.60
2019-03-22T23:09:19.760Z,7.60
2019-03-22T23:11:50.114Z,7.60
2019-03-22T23:14:20.801Z,7.50
2019-03-22T23:16:51.173Z,7.50
2019-03-22T23:19:21.699Z,7.50
2019-03-22T23:21:52.005Z,7.50
2019-03-22T23:24:22.462Z,7.40
2019-03-22T23:26:53.438Z,7.40
2019-03-22T23:29:23.703Z,7.40
2019-03-22T23:31:54.210Z,7.40
2019-03-22T23:34:24.683Z,7.40
2019-03-22T23:36:55.381Z,7.30
2019-03-22T23:39:25.410Z,7.30
2019-03-22T23:41:56.014Z,7.30
2019-03-22T23:44:26.636Z,7.20
2019-03-22T23:46:58.285Z,7.20
2019-03-22T23:49:28.924Z,7.20
2019-03-22T23:51:59.178Z,7.20
2019-03-22T23:54:29.707Z,7.10
2019-03-22T23:57:00.247Z,7.10
2019-03-22T23:59:30.485Z,7.10
